Time;durP1;ratioP1;P1;durP2;ratioP2;P2;SDS_P1;SDS_P2;PMS_P1;PMS_P2;Temp;Humidity;BMP_temperature;BMP_pressure;BME280_temperature;BME280_humidity;BME280_pressure;Samples;Min_cycle;Max_cycle;Signal;HPM_P1;HPM_P2
2023/10/27 00:00:34;;;;;;;276.60;12.00;;;;;;;;;;4975440;28;20481;-54
2023/10/27 00:02:59;;;;;;;162.15;7.40;;;;;;;;;;4976403;28;20646;-54
2023/10/27 00:05:25;;;;;;;221.03;9.90;;;;;;;;;;4975949;28;20042;-54
2023/10/27 00:07:50;;;;;;;180.90;7.85;;;;;;;;;;4978073;28;20265;-54
2023/10/27 00:10:15;;;;;;;201.18;8.85;;;;;;;;;;4975670;28;20038;-54
2023/10/27 00:12:40;;;;;;;199.67;8.30;;;;;;;;;;4974766;28;20398;-54
2023/10/27 00:15:06;;;;;;;198.45;9.20;;;;;;;;;;4976840;28;20642;-55
2023/10/27 00:17:32;;;;;;;279.58;12.02;;;;;;;;;;4976163;28;20041;-54
2023/10/27 00:19:58;;;;;;;182.88;8.45;;;;;;;;;;4978710;28;20077;-54
2023/10/27 00:22:25;;;;;;;196.48;9.07;;;;;;;;;;4974898;28;20042;-53
2023/10/27 00:24:50;;;;;;;204.95;9.23;;;;;;;;;;4975844;28;20034;-54
2023/10/27 00:27:15;;;;;;;162.30;8.10;;;;;;;;;;4977440;28;20038;-53
2023/10/27 00:29:40;;;;;;;202.50;9.32;;;;;;;;;;4974659;28;20052;-53
2023/10/27 00:32:06;;;;;;;203.73;9.35;;;;;;;;;;4973021;28;20472;-53
2023/10/27 00:34:31;;;;;;;275.88;12.60;;;;;;;;;;4975158;28;20057;-53
2023/10/27 00:36:56;;;;;;;201.20;9.03;;;;;;;;;;4974893;28;20315;-53
2023/10/27 00:39:21;;;;;;;233.23;10.10;;;;;;;;;;4974688;28;20265;-54
2023/10/27 00:41:47;;;;;;;195.52;9.07;;;;;;;;;;4969066;28;20277;-54
2023/10/27 00:44:12;;;;;;;215.85;9.68;;;;;;;;;;4974248;28;20022;-54
2023/10/27 00:46:39;;;;;;;327.67;13.43;;;;;;;;;;4971342;28;20552;-53
2023/10/27 00:49:04;;;;;;;170.00;8.02;;;;;;;;;;4975625;28;20558;-54
2023/10/27 00:51:29;;;;;;;314.80;13.20;;;;;;;;;;4974718;28;20042;-54
2023/10/27 00:53:55;;;;;;;224.65;9.77;;;;;;;;;;4974844;28;20022;-54
2023/10/27 00:56:20;;;;;;;176.85;8.07;;;;;;;;;;4972934;28;20045;-54
2023/10/27 00:58:46;;;;;;;224.07;9.25;;;;;;;;;;4974447;28;20030;-54
2023/10/27 01:01:12;;;;;;;174.48;7.97;;;;;;;;;;4972968;28;20099;-53
2023/10/27 01:03:37;;;;;;;270.45;11.93;;;;;;;;;;4975077;28;20018;-53
2023/10/27 01:06:03;;;;;;;222.45;9.13;;;;;;;;;;4974209;28;20043;-54
2023/10/27 01:08:28;;;;;;;254.75;11.10;;;;;;;;;;4975127;28;20045;-54
2023/10/27 01:10:53;;;;;;;149.23;7.10;;;;;;;;;;4974972;28;20710;-54
2023/10/27 01:13:19;;;;;;;188.60;7.95;;;;;;;;;;4976913;28;20816;-55
2023/10/27 01:15:44;;;;;;;181.85;7.60;;;;;;;;;;4974460;28;20057;-54
2023/10/27 01:18:09;;;;;;;111.90;3.93;;;;;;;;;;4976213;28;20754;-54
2023/10/27 01:20:34;;;;;;;299.80;10.15;;;;;;;;;;4976116;28;20316;-54
2023/10/27 01:23:01;;;;;;;218.05;6.80;;;;;;;;;;4978241;28;20104;-54
2023/10/27 01:25:26;;;;;;;127.60;4.68;;;;;;;;;;4975429;28;20407;-54
2023/10/27 01:27:52;;;;;;;168.77;5.63;;;;;;;;;;4980001;28;20022;-55
2023/10/27 01:30:17;;;;;;;139.27;4.80;;;;;;;;;;4977541;28;20540;-56
2023/10/27 01:32:44;;;;;;;202.95;6.68;;;;;;;;;;4978681;28;20026;-56
2023/10/27 01:35:10;;;;;;;250.18;7.82;;;;;;;;;;4979431;28;20461;-53
2023/10/27 01:37:35;;;;;;;180.77;6.50;;;;;;;;;;4978234;28;20556;-53
2023/10/27 01:40:02;;;;;;;187.23;6.03;;;;;;;;;;4976358;28;20572;-54
2023/10/27 01:42:29;;;;;;;239.32;7.55;;;;;;;;;;4974850;28;20380;-55
2023/10/27 01:44:54;;;;;;;196.85;6.30;;;;;;;;;;4977127;28;20430;-54
2023/10/27 01:47:19;;;;;;;120.32;4.18;;;;;;;;;;4977278;28;20550;-55
2023/10/27 01:49:45;;;;;;;172.30;5.78;;;;;;;;;;4975942;28;20066;-53
2023/10/27 01:52:10;;;;;;;125.38;4.35;;;;;;;;;;4978790;28;20425;-55
2023/10/27 01:54:35;;;;;;;206.18;7.57;;;;;;;;;;4977888;28;20030;-53
2023/10/27 01:57:00;;;;;;;181.95;6.38;;;;;;;;;;4979200;28;20056;-54
2023/10/27 01:59:28;;;;;;;117.88;4.15;;;;;;;;;;4980202;28;20498;-54
2023/10/27 02:01:53;;;;;;;162.90;5.82;;;;;;;;;;4975954;28;20041;-54
2023/10/27 02:04:20;;;;;;;159.73;5.40;;;;;;;;;;4980413;28;20027;-53
2023/10/27 02:06:45;;;;;;;246.98;9.40;;;;;;;;;;4978634;28;20278;-54
2023/10/27 02:09:10;;;;;;;174.90;6.32;;;;;;;;;;4979141;28;20449;-54
2023/10/27 02:11:36;;;;;;;253.05;9.30;;;;;;;;;;4977177;28;20429;-53
2023/10/27 02:14:01;;;;;;;164.77;6.25;;;;;;;;;;4979111;28;20022;-54
2023/10/27 02:16:26;;;;;;;182.40;6.13;;;;;;;;;;4980416;28;20030;-54
2023/10/27 02:18:52;;;;;;;171.88;5.88;;;;;;;;;;4977138;28;20030;-54
2023/10/27 02:21:17;;;;;;;124.17;4.30;;;;;;;;;;4979064;28;20039;-54
2023/10/27 02:23:42;;;;;;;258.48;9.02;;;;;;;;;;4976421;28;20331;-53
2023/10/27 02:26:08;;;;;;;143.53;5.20;;;;;;;;;;4977091;28;20053;-53
2023/10/27 02:28:33;;;;;;;217.38;8.75;;;;;;;;;;4978803;28;20261;-54
2023/10/27 02:30:58;;;;;;;151.77;5.15;;;;;;;;;;4978146;28;20267;-54
2023/10/27 02:33:24;;;;;;;143.07;4.88;;;;;;;;;;4980559;28;20271;-53
2023/10/27 02:35:49;;;;;;;162.02;5.55;;;;;;;;;;4975976;28;20540;-54
2023/10/27 02:38:14;;;;;;;185.80;5.97;;;;;;;;;;4977463;28;20022;-54
2023/10/27 02:40:39;;;;;;;183.70;6.72;;;;;;;;;;4975080;28;20454;-54
2023/10/27 02:43:05;;;;;;;147.40;5.03;;;;;;;;;;4977174;28;20022;-53
2023/10/27 02:45:30;;;;;;;197.10;6.63;;;;;;;;;;4974253;28;20048;-54
2023/10/27 02:47:55;;;;;;;214.40;7.38;;;;;;;;;;4978150;28;20060;-53
2023/10/27 02:50:20;;;;;;;162.13;5.60;;;;;;;;;;4976214;28;20022;-54
2023/10/27 02:52:46;;;;;;;237.10;7.73;;;;;;;;;;4977215;28;20128;-54
2023/10/27 02:55:11;;;;;;;164.85;5.72;;;;;;;;;;4977517;28;20265;-54
2023/10/27 02:57:36;;;;;;;193.45;7.20;;;;;;;;;;4977401;28;20042;-54
2023/10/27 03:00:02;;;;;;;225.63;7.38;;;;;;;;;;4977883;28;20022;-54
2023/10/27 03:02:27;;;;;;;122.32;4.30;;;;;;;;;;4979312;28;20042;-54
2023/10/27 03:04:54;;;;;;;138.52;4.63;;;;;;;;;;4975539;28;20054;-54
2023/10/27 03:07:20;;;;;;;150.27;5.22;;;;;;;;;;4975604;28;20053;-54
2023/10/27 03:09:45;;;;;;;218.17;7.17;;;;;;;;;;4975934;28;20222;-55
2023/10/27 03:12:11;;;;;;;148.03;5.20;;;;;;;;;;4975415;28;20452;-54
2023/10/27 03:14:37;;;;;;;302.40;10.50;;;;;;;;;;4976835;28;20300;-54
2023/10/27 03:17:03;;;;;;;133.77;4.80;;;;;;;;;;4977319;28;20038;-54
2023/10/27 03:19:28;;;;;;;110.68;4.18;;;;;;;;;;4974723;28;20030;-54
2023/10/27 03:21:53;;;;;;;167.18;5.57;;;;;;;;;;4974024;28;20447;-53
2023/10/27 03:24:18;;;;;;;148.20;5.07;;;;;;;;;;4978492;28;20076;-54
2023/10/27 03:26:44;;;;;;;231.52;8.48;;;;;;;;;;4976357;28;20085;-54
2023/10/27 03:29:09;;;;;;;179.93;6.03;;;;;;;;;;4977661;28;20670;-54
2023/10/27 03:31:34;;;;;;;193.68;7.15;;;;;;;;;;4977216;28;20104;-56
2023/10/27 03:34:00;;;;;;;167.00;5.63;;;;;;;;;;4977687;28;20041;-54
2023/10/27 03:36:25;;;;;;;181.88;6.15;;;;;;;;;;4978152;28;20034;-55
2023/10/27 03:38:50;;;;;;;147.18;4.72;;;;;;;;;;4976928;28;20122;-53
2023/10/27 03:41:16;;;;;;;139.40;4.63;;;;;;;;;;4977036;28;20101;-54
2023/10/27 03:43:41;;;;;;;282.75;9.70;;;;;;;;;;4975178;28;20022;-54
2023/10/27 03:46:07;;;;;;;147.60;5.10;;;;;;;;;;4978687;28;20042;-55
2023/10/27 03:48:34;;;;;;;135.65;4.65;;;;;;;;;;4976939;28;20022;-56
2023/10/27 03:51:02;;;;;;;214.68;7.05;;;;;;;;;;4974486;28;20034;-55
2023/10/27 03:53:27;;;;;;;118.38;4.32;;;;;;;;;;4978202;28;20135;-56
2023/10/27 03:55:53;;;;;;;135.82;4.78;;;;;;;;;;4977449;28;20062;-56
2023/10/27 03:58:18;;;;;;;162.20;5.22;;;;;;;;;;4979028;28;20549;-55
2023/10/27 04:00:44;;;;;;;240.63;8.53;;;;;;;;;;4975896;28;20062;-54
2023/10/27 04:03:09;;;;;;;174.73;5.70;;;;;;;;;;4976120;28;20640;-54
2023/10/27 04:05:35;;;;;;;177.13;6.10;;;;;;;;;;4973533;28;20422;-54
2023/10/27 04:08:00;;;;;;;140.48;5.15;;;;;;;;;;4977317;28;20109;-54
2023/10/27 04:10:25;;;;;;;158.90;5.45;;;;;;;;;;4976338;28;20272;-54
2023/10/27 04:12:51;;;;;;;204.65;7.40;;;;;;;;;;4974882;28;20272;-54
2023/10/27 04:15:18;;;;;;;164.05;5.70;;;;;;;;;;4973600;28;20454;-53
2023/10/27 04:17:43;;;;;;;240.68;8.63;;;;;;;;;;4974235;28;20057;-54
2023/10/27 04:20:08;;;;;;;181.82;6.00;;;;;;;;;;4975138;28;20113;-54
2023/10/27 04:22:33;;;;;;;126.35;4.40;;;;;;;;;;4975798;28;20014;-54
2023/10/27 04:24:59;;;;;;;211.43;7.20;;;;;;;;;;4973599;28;20056;-55
2023/10/27 04:27:25;;;;;;;191.25;6.38;;;;;;;;;;4975835;28;20606;-54
2023/10/27 04:29:50;;;;;;;247.73;8.68;;;;;;;;;;4975359;28;20056;-54
2023/10/27 04:32:15;;;;;;;216.70;7.03;;;;;;;;;;4974527;28;20066;-55
2023/10/27 04:34:41;;;;;;;259.27;9.23;;;;;;;;;;4973052;28;20118;-54
2023/10/27 04:37:06;;;;;;;184.68;6.20;;;;;;;;;;4975394;28;20416;-54
2023/10/27 04:39:32;;;;;;;222.30;7.23;;;;;;;;;;4972188;28;20121;-55
2023/10/27 04:41:57;;;;;;;185.77;6.15;;;;;;;;;;4975401;28;20425;-54
2023/10/27 04:44:23;;;;;;;127.87;4.63;;;;;;;;;;4973878;28;20030;-55
2023/10/27 04:46:49;;;;;;;325.55;11.15;;;;;;;;;;4972817;28;20285;-54
2023/10/27 04:49:15;;;;;;;172.80;6.70;;;;;;;;;;4975114;28;20037;-55
2023/10/27 04:51:40;;;;;;;236.82;8.55;;;;;;;;;;4974196;28;20411;-55
2023/10/27 04:54:06;;;;;;;200.53;6.63;;;;;;;;;;4975764;28;20092;-54
2023/10/27 04:56:31;;;;;;;168.18;6.60;;;;;;;;;;4978334;28;20283;-54
2023/10/27 04:58:56;;;;;;;171.75;6.22;;;;;;;;;;4977826;28;20125;-55
2023/10/27 05:01:25;;;;;;;207.35;6.78;;;;;;;;;;4976703;28;20395;-54
2023/10/27 05:03:50;;;;;;;269.45;9.52;;;;;;;;;;4977090;28;20026;-54
2023/10/27 05:06:15;;;;;;;155.52;5.30;;;;;;;;;;4975118;28;20435;-54
2023/10/27 05:08:41;;;;;;;313.25;11.00;;;;;;;;;;4977012;28;20635;-54
2023/10/27 05:11:06;;;;;;;184.98;6.22;;;;;;;;;;4978727;28;20050;-54
2023/10/27 05:13:31;;;;;;;166.07;5.90;;;;;;;;;;4979968;28;20056;-54
2023/10/27 05:15:57;;;;;;;228.10;7.45;;;;;;;;;;4974622;28;20035;-54
2023/10/27 05:18:22;;;;;;;154.95;5.63;;;;;;;;;;4976362;28;20044;-54
2023/10/27 05:20:47;;;;;;;280.35;9.93;;;;;;;;;;4976177;28;20031;-54
2023/10/27 05:23:13;;;;;;;216.32;6.90;;;;;;;;;;4976101;28;20034;-54
2023/10/27 05:25:39;;;;;;;194.93;6.70;;;;;;;;;;4974572;28;20513;-53
2023/10/27 05:28:04;;;;;;;213.18;6.93;;;;;;;;;;4976881;28;20257;-54
2023/10/27 05:30:29;;;;;;;209.25;7.20;;;;;;;;;;4979691;28;20471;-53
2023/10/27 05:32:54;;;;;;;244.88;8.43;;;;;;;;;;4978617;28;20061;-54
2023/10/27 05:35:20;;;;;;;120.45;4.35;;;;;;;;;;4978279;28;20441;-55
2023/10/27 05:37:45;;;;;;;271.58;9.02;;;;;;;;;;4973903;28;20022;-54
2023/10/27 05:40:10;;;;;;;160.52;5.75;;;;;;;;;;4977309;28;20121;-53
2023/10/27 05:42:36;;;;;;;169.48;5.72;;;;;;;;;;4976231;28;20121;-53
2023/10/27 05:45:02;;;;;;;255.75;8.05;;;;;;;;;;4974563;28;20034;-52
2023/10/27 05:47:28;;;;;;;188.93;6.07;;;;;;;;;;4976822;28;20069;-53
2023/10/27 05:49:54;;;;;;;211.80;7.47;;;;;;;;;;4978882;28;20027;-54
2023/10/27 05:52:20;;;;;;;217.95;7.18;;;;;;;;;;4975988;28;20054;-53
2023/10/27 05:54:45;;;;;;;240.45;8.57;;;;;;;;;;4976356;28;20023;-53
2023/10/27 05:57:10;;;;;;;143.15;4.97;;;;;;;;;;4978377;28;20049;-54
2023/10/27 05:59:36;;;;;;;211.27;6.57;;;;;;;;;;4977707;28;20052;-54
2023/10/27 06:02:01;;;;;;;146.85;4.97;;;;;;;;;;4977297;28;20121;-54
2023/10/27 06:04:27;;;;;;;145.35;5.03;;;;;;;;;;4977245;28;20022;-54
2023/10/27 06:06:52;;;;;;;212.00;7.27;;;;;;;;;;4974994;28;20031;-54
2023/10/27 06:09:17;;;;;;;205.70;7.18;;;;;;;;;;4978052;28;20698;-53
2023/10/27 06:11:42;;;;;;;199.13;6.95;;;;;;;;;;4976416;28;20129;-53
2023/10/27 06:14:08;;;;;;;196.63;6.72;;;;;;;;;;4977642;28;20054;-53
2023/10/27 06:16:33;;;;;;;138.50;4.63;;;;;;;;;;4976987;28;20038;-53
2023/10/27 06:18:59;;;;;;;234.50;8.57;;;;;;;;;;4978499;28;20017;-53
2023/10/27 06:21:25;;;;;;;186.27;6.35;;;;;;;;;;4979213;28;20381;-53
2023/10/27 06:23:50;;;;;;;248.40;8.70;;;;;;;;;;4977194;28;20062;-53
2023/10/27 06:26:16;;;;;;;186.88;5.63;;;;;;;;;;4978920;28;20498;-53
2023/10/27 06:28:41;;;;;;;180.20;5.90;;;;;;;;;;4977773;28;20026;-53
2023/10/27 06:31:09;;;;;;;147.73;5.03;;;;;;;;;;4979745;28;20470;-53
2023/10/27 06:33:34;;;;;;;193.93;6.63;;;;;;;;;;4978764;28;20018;-53
2023/10/27 06:36:00;;;;;;;194.32;6.72;;;;;;;;;;4977972;28;20106;-53
2023/10/27 06:38:25;;;;;;;139.32;4.82;;;;;;;;;;4979107;28;20612;-53
2023/10/27 06:40:50;;;;;;;247.60;8.73;;;;;;;;;;4977441;28;20261;-53
2023/10/27 06:43:15;;;;;;;176.37;5.67;;;;;;;;;;4979712;28;20469;-53
2023/10/27 06:45:41;;;;;;;137.77;4.63;;;;;;;;;;4977284;28;20254;-52
2023/10/27 06:48:06;;;;;;;175.52;5.80;;;;;;;;;;4978450;28;20265;-52
2023/10/27 06:50:31;;;;;;;155.63;5.10;;;;;;;;;;4979427;28;20031;-53
2023/10/27 06:52:56;;;;;;;264.03;9.17;;;;;;;;;;4974951;28;20026;-53
2023/10/27 06:55:22;;;;;;;181.07;6.32;;;;;;;;;;4976649;28;20257;-53
2023/10/27 06:57:47;;;;;;;241.93;8.37;;;;;;;;;;4976711;28;20025;-53
2023/10/27 07:00:12;;;;;;;175.90;5.70;;;;;;;;;;4977244;28;20253;-53
2023/10/27 07:02:38;;;;;;;154.02;5.00;;;;;;;;;;4973043;28;20532;-54
2023/10/27 07:05:05;;;;;;;145.75;4.97;;;;;;;;;;4978574;28;20023;-53
2023/10/27 07:07:30;;;;;;;114.82;4.00;;;;;;;;;;4981943;28;20105;-53
2023/10/27 07:09:56;;;;;;;218.20;7.55;;;;;;;;;;4978881;28;20109;-54
2023/10/27 07:12:21;;;;;;;129.00;4.50;;;;;;;;;;4981569;28;20030;-53
2023/10/27 07:14:46;;;;;;;125.70;4.82;;;;;;;;;;4980503;28;20027;-53
2023/10/27 07:17:11;;;;;;;185.05;5.97;;;;;;;;;;4975658;28;20420;-53
2023/10/27 07:19:36;;;;;;;104.60;3.80;;;;;;;;;;4980624;28;20050;-53
2023/10/27 07:22:03;;;;;;;199.57;7.40;;;;;;;;;;4979710;28;20261;-53
2023/10/27 07:24:29;;;;;;;132.50;4.78;;;;;;;;;;4979187;28;20380;-53
2023/10/27 07:26:55;;;;;;;154.70;5.50;;;;;;;;;;4980297;28;20046;-53
2023/10/27 07:29:20;;;;;;;91.80;4.10;;;;;;;;;;4981106;28;20019;-52
2023/10/27 07:31:45;;;;;;;207.33;6.67;;;;;;;;;;4977363;28;20125;-52
2023/10/27 07:34:10;;;;;;;143.40;4.87;;;;;;;;;;4981322;28;20293;-52
2023/10/27 07:36:36;;;;;;;107.55;3.83;;;;;;;;;;4981446;28;20265;-53
2023/10/27 07:39:01;;;;;;;241.63;8.93;;;;;;;;;;4978297;28;20019;-53
2023/10/27 07:41:26;;;;;;;87.20;3.28;;;;;;;;;;4977934;28;20100;-53
2023/10/27 07:43:52;;;;;;;215.43;8.02;;;;;;;;;;4978770;28;20323;-53
2023/10/27 07:46:17;;;;;;;125.03;4.28;;;;;;;;;;4979643;28;20048;-53
2023/10/27 07:48:42;;;;;;;126.43;4.47;;;;;;;;;;4979533;28;20386;-53
2023/10/27 07:51:07;;;;;;;99.60;3.57;;;;;;;;;;4980499;28;20035;-52
2023/10/27 07:53:33;;;;;;;134.43;4.68;;;;;;;;;;4981322;28;20288;-53
2023/10/27 07:55:58;;;;;;;230.45;8.85;;;;;;;;;;4977890;28;20061;-53
2023/10/27 07:58:27;;;;;;;93.05;4.00;;;;;;;;;;4979638;28;20114;-52
2023/10/27 08:00:52;;;;;;;222.93;8.32;;;;;;;;;;4975785;28;20065;-53
2023/10/27 08:03:18;;;;;;;120.25;4.35;;;;;;;;;;4979357;28;20390;-53
2023/10/27 08:05:43;;;;;;;84.57;3.15;;;;;;;;;;4978446;28;20296;-54
2023/10/27 08:08:09;;;;;;;186.15;6.22;;;;;;;;;;4975731;28;20022;-53
2023/10/27 08:10:36;;;;;;;94.55;3.42;;;;;;;;;;4979297;28;20391;-53
2023/10/27 08:13:01;;;;;;;192.40;7.22;;;;;;;;;;4979735;28;20061;-53
2023/10/27 08:15:27;;;;;;;151.32;5.05;;;;;;;;;;4979300;28;20010;-53
2023/10/27 08:17:52;;;;;;;199.00;7.43;;;;;;;;;;4981739;28;20014;-53
2023/10/27 08:20:17;;;;;;;85.95;3.35;;;;;;;;;;4978478;28;20407;-53
2023/10/27 08:22:43;;;;;;;119.70;4.18;;;;;;;;;;4981735;28;20030;-53
2023/10/27 08:25:08;;;;;;;104.40;3.70;;;;;;;;;;4978292;28;20109;-53
2023/10/27 08:27:34;;;;;;;112.50;4.07;;;;;;;;;;4980675;28;20028;-53
2023/10/27 08:29:59;;;;;;;193.73;6.75;;;;;;;;;;4976184;28;20649;-54
2023/10/27 08:32:24;;;;;;;110.07;3.83;;;;;;;;;;4977414;28;20031;-53
2023/10/27 08:34:49;;;;;;;130.38;4.82;;;;;;;;;;4978788;28;20018;-52
2023/10/27 08:37:16;;;;;;;121.30;4.47;;;;;;;;;;4978245;28;20018;-52
2023/10/27 08:39:42;;;;;;;135.77;4.70;;;;;;;;;;4979223;28;20014;-53
2023/10/27 08:42:07;;;;;;;248.80;8.75;;;;;;;;;;4977403;28;20048;-53
2023/10/27 08:44:33;;;;;;;135.88;4.68;;;;;;;;;;4977455;28;20449;-53
2023/10/27 08:46:59;;;;;;;178.88;6.57;;;;;;;;;;4977253;28;20042;-54
2023/10/27 08:49:24;;;;;;;161.00;5.33;;;;;;;;;;4979523;28;20025;-55
2023/10/27 08:51:50;;;;;;;172.13;5.97;;;;;;;;;;4977096;28;20273;-53
2023/10/27 08:54:16;;;;;;;113.60;4.00;;;;;;;;;;4977919;28;20482;-53
2023/10/27 08:56:41;;;;;;;155.27;5.38;;;;;;;;;;4978511;28;20544;-54
2023/10/27 08:59:09;;;;;;;227.73;8.80;;;;;;;;;;4976850;28;20034;-54
2023/10/27 09:01:35;;;;;;;102.07;4.38;;;;;;;;;;4978718;28;20271;-53
2023/10/27 09:04:07;;;;;;;216.60;7.85;;;;;;;;;;4978585;28;20038;-53
2023/10/27 09:06:33;;;;;;;77.15;3.90;;;;;;;;;;4979654;28;20031;-53
2023/10/27 09:09:00;;;;;;;232.38;9.20;;;;;;;;;;4978833;28;20018;-53
2023/10/27 09:11:25;;;;;;;150.95;5.95;;;;;;;;;;4976209;28;20041;-53
2023/10/27 09:13:50;;;;;;;152.97;6.00;;;;;;;;;;4975549;28;20018;-52
2023/10/27 09:16:25;;;;;;;160.73;6.45;;;;;;;;;;4979746;28;20270;-53
2023/10/27 09:18:51;;;;;;;89.10;4.32;;;;;;;;;;4978643;28;20163;-53
2023/10/27 09:21:28;;;;;;;122.75;5.07;;;;;;;;;;4977585;28;20038;-53
2023/10/27 09:23:53;;;;;;;251.98;9.48;;;;;;;;;;4975387;28;20023;-53
2023/10/27 09:26:19;;;;;;;154.77;6.07;;;;;;;;;;4976662;28;20049;-53
2023/10/27 09:28:44;;;;;;;177.23;7.03;;;;;;;;;;4976987;28;20289;-53
2023/10/27 09:31:09;;;;;;;281.90;10.80;;;;;;;;;;4976568;28;20473;-54
2023/10/27 09:33:34;;;;;;;70.35;3.75;;;;;;;;;;4978419;28;20065;-53
2023/10/27 09:36:02;;;;;;;255.80;10.48;;;;;;;;;;4975086;28;20022;-53
2023/10/27 09:38:28;;;;;;;147.55;6.03;;;;;;;;;;4978326;28;20088;-54
2023/10/27 09:40:56;;;;;;;119.68;4.90;;;;;;;;;;4975017;28;20109;-53
2023/10/27 09:43:25;;;;;;;183.13;7.32;;;;;;;;;;4984016;28;20556;-53
2023/10/27 09:45:52;;;;;;;121.82;4.75;;;;;;;;;;4984213;28;20041;-53
2023/10/27 09:48:21;;;;;;;146.20;6.15;;;;;;;;;;4980149;28;20426;-54
2023/10/27 09:50:47;;;;;;;167.85;6.57;;;;;;;;;;4979783;28;20031;-53
2023/10/27 09:53:14;;;;;;;130.88;5.50;;;;;;;;;;4979718;28;20022;-53
2023/10/27 09:55:40;;;;;;;129.73;5.32;;;;;;;;;;4980706;28;20038;-53
2023/10/27 09:58:06;;;;;;;233.68;9.27;;;;;;;;;;4980615;28;20015;-54
2023/10/27 10:00:34;;;;;;;130.30;5.50;;;;;;;;;;4981522;28;20088;-54
2023/10/27 10:03:00;;;;;;;225.55;7.55;;;;;;;;;;4977978;28;20486;-53
2023/10/27 10:05:26;;;;;;;122.28;4.93;;;;;;;;;;4982338;28;20027;-54
2023/10/27 10:07:55;;;;;;;110.88;4.70;;;;;;;;;;4984228;28;20058;-53
2023/10/27 10:10:32;;;;;;;162.65;6.05;;;;;;;;;;4980743;28;20030;-54
2023/10/27 10:13:08;;;;;;;121.40;4.95;;;;;;;;;;4981766;28;20022;-53
2023/10/27 10:15:37;;;;;;;141.43;5.65;;;;;;;;;;4981542;28;20042;-53
2023/10/27 10:18:03;;;;;;;143.80;6.13;;;;;;;;;;4983804;28;20026;-53
2023/10/27 10:20:44;;;;;;;135.02;5.47;;;;;;;;;;4983968;28;20037;-56
2023/10/27 10:23:09;;;;;;;164.77;5.93;;;;;;;;;;4981466;28;20074;-54
2023/10/27 10:25:35;;;;;;;129.50;5.60;;;;;;;;;;4981014;28;20038;-53
2023/10/27 10:28:09;;;;;;;209.82;7.28;;;;;;;;;;4982467;28;20488;-53
2023/10/27 10:30:37;;;;;;;104.70;4.53;;;;;;;;;;4984200;28;20045;-53
2023/10/27 10:33:24;;;;;;;169.40;8.10;;;;;;;;;;4982447;28;20015;-53
2023/10/27 10:35:50;;;;;;;112.07;4.70;;;;;;;;;;4981528;28;20037;-53
2023/10/27 10:38:24;;;;;;;153.52;6.68;;;;;;;;;;4983060;28;20416;-53
2023/10/27 10:40:50;;;;;;;167.88;12.70;;;;;;;;;;4982053;28;20117;-53
2023/10/27 10:43:16;;;;;;;131.68;5.60;;;;;;;;;;4981467;28;20025;-54
2023/10/27 10:45:51;;;;;;;185.80;8.70;;;;;;;;;;4981228;28;20035;-53
2023/10/27 10:48:20;;;;;;;149.57;5.97;;;;;;;;;;4981239;28;20026;-53
2023/10/27 10:50:46;;;;;;;154.10;6.20;;;;;;;;;;4979613;28;20058;-54
2023/10/27 10:53:16;;;;;;;162.98;6.13;;;;;;;;;;4982323;28;20086;-53
2023/10/27 10:55:42;;;;;;;134.88;5.80;;;;;;;;;;4980899;28;20054;-54
2023/10/27 10:58:07;;;;;;;182.95;6.78;;;;;;;;;;4982347;28;20019;-54
2023/10/27 11:00:33;;;;;;;64.28;4.93;;;;;;;;;;4983970;28;20034;-53
2023/10/27 11:03:08;;;;;;;156.65;7.60;;;;;;;;;;4987061;28;20037;-53
2023/10/27 11:05:34;;;;;;;106.20;4.40;;;;;;;;;;4982023;28;20034;-53
2023/10/27 11:08:00;;;;;;;118.22;4.80;;;;;;;;;;4982740;28;20068;-53
2023/10/27 11:10:26;;;;;;;125.30;10.32;;;;;;;;;;4983730;28;20134;-53
2023/10/27 11:12:51;;;;;;;183.50;7.60;;;;;;;;;;4982457;28;20022;-53
2023/10/27 11:15:36;;;;;;;100.20;4.55;;;;;;;;;;4982930;28;20033;-53
2023/10/27 11:18:10;;;;;;;217.50;15.50;;;;;;;;;;4982580;28;20013;-53
2023/10/27 11:20:35;;;;;;;76.70;3.25;;;;;;;;;;4982394;28;20088;-53
2023/10/27 11:23:08;;;;;;;213.88;8.25;;;;;;;;;;4982633;28;20447;-54
2023/10/27 11:25:33;;;;;;;;;;;;;;;;;;4983166;28;20026;-53
2023/10/27 11:28:16;;;;;;;108.43;4.13;;;;;;;;;;4986196;28;19920;-53
2023/10/27 11:30:41;;;;;;;105.50;7.10;;;;;;;;;;4982812;28;20038;-54
2023/10/27 11:33:08;;;;;;;181.70;6.85;;;;;;;;;;4981519;28;20057;-54
2023/10/27 11:35:34;;;;;;;142.77;5.38;;;;;;;;;;4981510;28;20023;-53
2023/10/27 11:38:02;;;;;;;147.27;5.72;;;;;;;;;;4981836;28;20022;-53
2023/10/27 11:40:27;;;;;;;117.75;4.45;;;;;;;;;;4982320;28;20026;-55
2023/10/27 11:42:53;;;;;;;120.95;4.95;;;;;;;;;;4982939;28;20076;-53
2023/10/27 11:45:18;;;;;;;116.32;4.53;;;;;;;;;;4981185;28;20109;-54
2023/10/27 11:47:43;;;;;;;119.97;4.55;;;;;;;;;;4981763;28;20022;-54
2023/10/27 11:50:09;;;;;;;184.10;6.70;;;;;;;;;;4980963;28;20033;-53
2023/10/27 11:52:34;;;;;;;100.75;5.93;;;;;;;;;;4982856;28;20661;-54
2023/10/27 11:55:01;;;;;;;124.47;5.10;;;;;;;;;;4982084;28;20026;-54
2023/10/27 11:57:26;;;;;;;94.95;3.58;;;;;;;;;;4980108;28;20034;-54
2023/10/27 11:59:51;;;;;;;76.68;3.45;;;;;;;;;;4986772;28;20018;-53
2023/10/27 12:02:16;;;;;;;192.00;15.30;;;;;;;;;;4979971;28;20501;-54
2023/10/27 12:04:42;;;;;;;147.95;7.72;;;;;;;;;;4979387;28;20038;-54
2023/10/27 12:07:11;;;;;;;121.03;4.75;;;;;;;;;;4980114;28;20118;-53
2023/10/27 12:09:37;;;;;;;139.45;5.00;;;;;;;;;;4981635;28;20030;-53
2023/10/27 12:12:05;;;;;;;153.43;5.68;;;;;;;;;;4979414;28;20042;-54
2023/10/27 12:14:30;;;;;;;80.85;3.30;;;;;;;;;;4981378;28;20190;-54
2023/10/27 12:16:55;;;;;;;137.50;5.10;;;;;;;;;;4981400;28;20037;-55
2023/10/27 12:19:21;;;;;;;117.20;4.60;;;;;;;;;;4979856;28;20361;-54
2023/10/27 12:21:46;;;;;;;88.72;3.90;;;;;;;;;;4980209;28;20293;-55
2023/10/27 12:24:11;;;;;;;218.40;7.43;;;;;;;;;;4979712;28;20023;-55
2023/10/27 12:26:37;;;;;;;111.50;4.60;;;;;;;;;;4981656;28;20568;-54
2023/10/27 12:29:04;;;;;;;100.78;4.15;;;;;;;;;;4981564;28;20034;-55
2023/10/27 12:31:29;;;;;;;124.05;4.80;;;;;;;;;;4980498;28;20031;-54
2023/10/27 12:33:54;;;;;;;142.15;7.18;;;;;;;;;;4979130;28;20029;-54
2023/10/27 12:36:20;;;;;;;110.85;4.50;;;;;;;;;;4981137;28;20647;-54
2023/10/27 12:38:45;;;;;;;123.10;4.87;;;;;;;;;;4982256;28;20453;-54
2023/10/27 12:41:12;;;;;;;149.17;5.57;;;;;;;;;;4981239;28;20257;-54
2023/10/27 12:43:37;;;;;;;103.15;4.30;;;;;;;;;;4980978;28;20257;-54
2023/10/27 12:46:03;;;;;;;149.48;5.93;;;;;;;;;;4979111;28;20061;-54
2023/10/27 12:48:30;;;;;;;89.15;4.13;;;;;;;;;;4981546;28;20041;-54
2023/10/27 12:50:55;;;;;;;95.85;7.35;;;;;;;;;;4982454;28;20037;-54
2023/10/27 12:53:21;;;;;;;133.73;5.07;;;;;;;;;;4978532;28;20019;-55
2023/10/27 12:55:46;;;;;;;120.50;12.38;;;;;;;;;;4978272;28;20482;-54
2023/10/27 12:58:11;;;;;;;151.60;5.63;;;;;;;;;;4981638;28;20018;-54
2023/10/27 13:00:37;;;;;;;118.45;5.18;;;;;;;;;;4980523;28;20031;-55
2023/10/27 13:03:04;;;;;;;137.68;5.30;;;;;;;;;;4981288;28;20117;-55
2023/10/27 13:05:29;;;;;;;107.43;9.60;;;;;;;;;;4981958;28;20076;-55
2023/10/27 13:07:56;;;;;;;105.00;4.23;;;;;;;;;;4981286;28;20458;-55
2023/10/27 13:10:24;;;;;;;87.43;3.80;;;;;;;;;;4981284;28;20257;-54
2023/10/27 13:12:50;;;;;;;154.43;10.60;;;;;;;;;;4980816;28;20165;-56
2023/10/27 13:15:17;;;;;;;182.00;10.10;;;;;;;;;;4979087;28;20022;-53
2023/10/27 13:17:42;;;;;;;108.88;4.53;;;;;;;;;;4983070;28;20019;-53
2023/10/27 13:20:09;;;;;;;183.65;7.22;;;;;;;;;;4982930;28;20038;-53
2023/10/27 13:22:34;;;;;;;166.02;5.93;;;;;;;;;;4983693;28;20026;-54
2023/10/27 13:25:00;;;;;;;168.60;9.43;;;;;;;;;;4983934;28;20029;-55
2023/10/27 13:27:27;;;;;;;187.25;6.65;;;;;;;;;;4981278;28;20044;-55
2023/10/27 13:29:56;;;;;;;193.70;11.65;;;;;;;;;;4982883;28;20018;-55
2023/10/27 13:32:21;;;;;;;145.60;5.63;;;;;;;;;;4982056;28;20525;-54
2023/10/27 13:34:46;;;;;;;149.20;7.50;;;;;;;;;;4984330;28;20480;-54
2023/10/27 13:37:13;;;;;;;201.37;7.40;;;;;;;;;;4980563;28;20030;-54
2023/10/27 13:39:38;;;;;;;125.60;8.55;;;;;;;;;;4983737;28;20272;-54
2023/10/27 13:42:04;;;;;;;166.50;6.67;;;;;;;;;;4982439;28;20022;-54
2023/10/27 13:44:29;;;;;;;148.55;5.70;;;;;;;;;;4980058;28;20268;-54
2023/10/27 13:46:54;;;;;;;101.85;4.47;;;;;;;;;;4982221;28;20031;-54
2023/10/27 13:49:21;;;;;;;162.40;12.98;;;;;;;;;;4981790;28;20018;-54
2023/10/27 13:51:46;;;;;;;153.73;5.97;;;;;;;;;;4982620;28;20550;-54
2023/10/27 13:54:11;;;;;;;193.25;7.07;;;;;;;;;;4980371;28;20028;-54
2023/10/27 13:56:37;;;;;;;144.38;7.70;;;;;;;;;;4982574;28;20441;-55
2023/10/27 13:59:05;;;;;;;115.65;5.00;;;;;;;;;;4980563;28;20166;-55
2023/10/27 14:01:30;;;;;;;128.93;5.30;;;;;;;;;;4982816;28;20534;-55
2023/10/27 14:03:56;;;;;;;128.60;8.30;;;;;;;;;;4982297;28;20442;-54
2023/10/27 14:06:21;;;;;;;262.10;41.38;;;;;;;;;;4981868;28;20045;-54
2023/10/27 14:08:46;;;;;;;140.75;5.43;;;;;;;;;;4982295;28;20389;-53